Time,TemperatureF,DewpointF,PressureIn,WindDirection,WindDirectionDegrees,WindSpeedMPH,WindSpeedGustMPH,Humidity,HourlyPrecipIn,Conditions,Clouds,dailyrainin,SoftwareType,DateUTC
2013-02-04 00:01:00,31.6,13.7,30.03,WSW,237,0.0,0.0,47,0.00,,---,0.00,VWS V14.01,2013-02-04 07:01:00,
2013-02-04 00:06:00,31.5,13.6,30.03,WSW,255,0.0,4.0,47,0.00,,---,0.00,VWS V14.01,2013-02-04 07:06:00,
2013-02-04 00:11:00,31.5,14.1,30.03,WNW,301,0.0,4.0,48,0.00,,---,0.00,VWS V14.01,2013-02-04 07:11:00,
2013-02-04 00:16:00,31.1,13.2,30.03,NW,314,2.7,2.7,47,0.00,,---,0.00,VWS V14.01,2013-02-04 07:16:00,
2013-02-04 00:21:00,31.5,14.1,30.03,NW,311,0.0,3.6,48,0.00,,---,0.00,VWS V14.01,2013-02-04 07:21:00,
2013-02-04 00:26:00,31.8,13.9,30.03,West,279,2.7,4.0,47,0.00,,---,0.00,VWS V14.01,2013-02-04 07:26:00,
2013-02-04 00:31:00,31.6,13.7,30.03,WSW,248,0.0,4.9,47,0.00,,---,0.00,VWS V14.01,2013-02-04 07:31:00,
2013-02-04 00:36:00,31.5,13.6,30.03,WSW,250,0.0,4.9,47,0.00,,---,0.00,VWS V14.01,2013-02-04 07:36:00,
2013-02-04 00:41:00,31.1,13.7,30.03,West,259,0.0,4.9,48,0.00,,---,0.00,VWS V14.01,2013-02-04 07:41:00,
2013-02-04 00:46:00,31.1,13.7,30.03,WNW,297,3.1,4.0,48,0.00,,---,0.00,VWS V14.01,2013-02-04 07:46:00,
2013-02-04 00:51:00,31.5,14.1,30.03,WNW,286,0.0,4.5,48,0.00,,---,0.00,VWS V14.01,2013-02-04 07:51:00,
2013-02-04 00:56:00,31.6,14.2,30.03,West,279,4.0,4.5,48,0.00,,---,0.00,VWS V14.01,2013-02-04 07:56:00,
2013-02-04 01:01:00,31.6,14.2,30.03,West,274,0.0,0.0,48,0.00,,---,0.00,VWS V14.01,2013-02-04 08:01:00,
2013-02-04 01:06:00,32.5,15.0,30.03,WSW,254,2.7,2.7,48,0.00,,---,0.00,VWS V14.01,2013-02-04 08:06:00,
2013-02-04 01:11:00,32.7,14.7,30.03,West,263,0.0,3.1,47,0.00,,---,0.00,VWS V14.01,2013-02-04 08:11:00,
2013-02-04 01:16:00,33.6,15.1,30.03,West,268,3.1,4.0,46,0.00,,---,0.00,VWS V14.01,2013-02-04 08:16:00,
2013-02-04 01:21:00,33.6,15.1,30.03,SW,223,0.0,4.0,46,0.00,,---,0.00,VWS V14.01,2013-02-04 08:21:00,
2013-02-04 01:26:00,34.0,14.9,30.03,SW,230,4.0,4.0,45,0.00,,---,0.00,VWS V14.01,2013-02-04 08:26:00,
2013-02-04 01:31:00,34.0,14.9,30.03,NW,304,0.0,0.0,45,0.00,,---,0.00,VWS V14.01,2013-02-04 08:31:00,
2013-02-04 01:36:00,34.0,14.4,30.03,West,260,0.0,0.0,44,0.00,,---,0.00,VWS V14.01,2013-02-04 08:36:00,
2013-02-04 01:41:00,33.8,14.2,30.03,WNW,285,0.0,0.0,44,0.00,,---,0.00,VWS V14.01,2013-02-04 08:41:00,
2013-02-04 01:46:00,33.6,14.6,30.03,WNW,287,0.0,3.1,45,0.00,,---,0.00,VWS V14.01,2013-02-04 08:46:00,
2013-02-04 01:51:00,33.8,14.7,30.03,West,261,2.2,3.6,45,0.00,,---,0.00,VWS V14.01,2013-02-04 08:51:00,
2013-02-04 01:56:00,34.0,14.4,30.03,West,259,0.0,3.6,44,0.00,,---,0.00,VWS V14.01,2013-02-04 08:56:00,
2013-02-04 02:01:00,33.8,14.2,30.03,SSW,213,0.0,0.0,44,0.00,,---,0.00,VWS V14.01,2013-02-04 09:01:00,
2013-02-04 02:06:00,33.6,14.6,30.03,South,173,2.7,5.4,45,0.00,,---,0.00,VWS V14.01,2013-02-04 09:06:00,
2013-02-04 02:11:00,33.6,14.6,30.03,South,173,0.0,5.4,45,0.00,,---,0.00,VWS V14.01,2013-02-04 09:11:00,
2013-02-04 02:16:00,33.8,14.7,30.03,SW,227,0.0,0.0,45,0.00,,---,0.00,VWS V14.01,2013-02-04 09:16:00,
2013-02-04 02:21:00,33.8,14.2,30.03,WNW,298,4.0,4.0,44,0.00,,---,0.00,VWS V14.01,2013-02-04 09:21:00,
2013-02-04 02:26:00,34.2,14.5,30.03,WNW,295,0.0,4.0,44,0.00,,---,0.00,VWS V14.01,2013-02-04 09:26:00,
2013-02-04 02:31:00,34.2,14.5,30.03,West,279,0.0,0.0,44,0.00,,---,0.00,VWS V14.01,2013-02-04 09:31:00,
2013-02-04 02:36:00,33.8,14.2,30.03,WNW,284,0.0,0.0,44,0.00,,---,0.00,VWS V14.01,2013-02-04 09:36:00,
2013-02-04 02:41:00,33.8,14.2,30.03,West,279,0.0,0.0,44,0.00,,---,0.00,VWS V14.01,2013-02-04 09:41:00,
2013-02-04 02:46:00,33.8,14.2,30.03,South,189,0.0,0.0,44,0.00,,---,0.00,VWS V14.01,2013-02-04 09:46:00,
2013-02-04 02:51:00,33.8,14.7,30.03,SW,234,0.0,0.0,45,0.00,,---,0.00,VWS V14.01,2013-02-04 09:51:00,
2013-02-04 02:56:00,33.8,14.7,30.03,WSW,246,0.0,0.0,45,0.00,,---,0.00,VWS V14.01,2013-02-04 09:56:00,
2013-02-04 03:01:00,33.6,15.1,30.03,NW,306,2.2,3.6,46,0.00,,---,0.00,VWS V14.01,2013-02-04 10:01:00,
2013-02-04 03:06:00,34.0,14.9,30.03,NW,306,0.0,3.6,45,0.00,,---,0.00,VWS V14.01,2013-02-04 10:06:00,
2013-02-04 03:11:00,34.3,15.2,30.03,SSE,162,3.1,4.0,45,0.00,,---,0.00,VWS V14.01,2013-02-04 10:11:00,
2013-02-04 03:16:00,34.0,14.9,30.03,West,272,2.7,2.7,45,0.00,,---,0.00,VWS V14.01,2013-02-04 10:16:00,
2013-02-04 03:21:00,34.0,14.9,30.03,NW,311,0.0,3.1,45,0.00,,---,0.00,VWS V14.01,2013-02-04 10:21:00,
2013-02-04 03:26:00,34.0,14.9,30.03,NW,311,0.0,3.1,45,0.00,,---,0.00,VWS V14.01,2013-02-04 10:26:00,
2013-02-04 03:31:00,33.8,14.7,30.03,WSW,237,0.0,0.0,45,0.00,,---,0.00,VWS V14.01,2013-02-04 10:31:00,
2013-02-04 03:36:00,33.6,14.6,30.03,WSW,237,0.0,0.0,45,0.00,,---,0.00,VWS V14.01,2013-02-04 10:36:00,
2013-02-04 03:41:00,33.6,15.1,30.03,West,281,0.0,0.0,46,0.00,,---,0.00,VWS V14.01,2013-02-04 10:41:00,
2013-02-04 03:46:00,33.6,15.1,30.03,WSW,237,0.0,0.0,46,0.00,,---,0.00,VWS V14.01,2013-02-04 10:46:00,
2013-02-04 03:51:00,34.0,14.9,30.03,WNW,298,0.0,4.0,45,0.00,,---,0.00,VWS V14.01,2013-02-04 10:51:00,
2013-02-04 03:56:00,34.2,15.1,30.03,West,265,0.0,4.0,45,0.00,,---,0.00,VWS V14.01,2013-02-04 10:56:00,
2013-02-04 04:01:00,34.3,14.7,30.03,North,353,0.0,0.0,44,0.00,,---,0.00,VWS V14.01,2013-02-04 11:01:00,
2013-02-04 04:06:00,34.5,14.9,30.03,SSE,155,0.0,0.0,44,0.00,,---,0.00,VWS V14.01,2013-02-04 11:06:00,
2013-02-04 04:11:00,34.9,15.2,30.03,West,268,0.0,0.0,44,0.00,,---,0.00,VWS V14.01,2013-02-04 11:11:00,
2013-02-04 04:16:00,35.4,15.2,30.03,West,272,0.0,0.0,43,0.00,,---,0.00,VWS V14.01,2013-02-04 11:16:00,
2013-02-04 04:21:00,35.4,15.2,30.03,WSW,257,0.0,3.6,43,0.00,,---,0.00,VWS V14.01,2013-02-04 11:21:00,
2013-02-04 04:26:00,35.6,14.8,30.03,WNW,289,2.2,4.0,42,0.00,,---,0.00,VWS V14.01,2013-02-04 11:26:00,
2013-02-04 04:31:00,35.8,14.9,30.03,West,259,0.0,0.0,42,0.00,,---,0.00,VWS V14.01,2013-02-04 11:31:00,
2013-02-04 04:36:00,36.0,15.1,30.03,NW,307,0.0,0.0,42,0.00,,---,0.00,VWS V14.01,2013-02-04 11:36:00,
2013-02-04 04:41:00,36.1,15.3,30.03,WNW,298,0.0,0.0,42,0.00,,---,0.00,VWS V14.01,2013-02-04 11:41:00,
2013-02-04 04:46:00,36.0,15.1,30.03,SSW,203,4.0,4.0,42,0.00,,---,0.00,VWS V14.01,2013-02-04 11:46:00,
2013-02-04 04:51:00,38.5,16.3,30.03,SSE,153,4.0,10.5,40,0.00,,---,0.00,VWS V14.01,2013-02-04 11:51:00,
2013-02-04 04:56:00,39.6,16.7,30.03,SE,146,4.0,10.5,39,0.00,,---,0.00,VWS V14.01,2013-02-04 11:56:00,
2013-02-04 05:01:00,39.9,17.0,30.03,SE,141,8.7,8.7,39,0.00,,---,0.00,VWS V14.01,2013-02-04 12:01:00,
2013-02-04 05:06:00,40.6,16.4,30.03,SE,142,5.8,9.6,37,0.00,,---,0.00,VWS V14.01,2013-02-04 12:06:00,
2013-02-04 05:11:00,40.6,15.8,30.03,South,175,5.8,9.6,36,0.00,,---,0.00,VWS V14.01,2013-02-04 12:11:00,
2013-02-04 05:16:00,40.6,15.1,30.03,NNW,328,2.7,8.3,35,0.00,,---,0.00,VWS V14.01,2013-02-04 12:16:00,
2013-02-04 05:21:00,40.5,15.0,30.03,WSW,238,2.7,8.3,35,0.00,,---,0.00,VWS V14.01,2013-02-04 12:21:00,
2013-02-04 05:26:00,39.9,14.5,30.03,WSW,250,0.0,8.3,35,0.00,,---,0.00,VWS V14.01,2013-02-04 12:26:00,
2013-02-04 05:31:00,39.4,14.0,30.03,WSW,250,0.0,0.0,35,0.00,,---,0.00,VWS V14.01,2013-02-04 12:31:00,
2013-02-04 05:36:00,39.2,13.9,30.03,ENE,72,0.0,0.0,35,0.00,,---,0.00,VWS V14.01,2013-02-04 12:36:00,
2013-02-04 05:41:00,39.0,14.3,30.03,ENE,72,0.0,0.0,36,0.00,,---,0.00,VWS V14.01,2013-02-04 12:41:00,
2013-02-04 05:46:00,38.7,14.0,30.03,SE,134,0.0,0.0,36,0.00,,---,0.00,VWS V14.01,2013-02-04 12:46:00,
2013-02-04 05:51:00,38.8,14.2,30.03,South,182,0.0,3.1,36,0.00,,---,0.00,VWS V14.01,2013-02-04 12:51:00,
2013-02-04 05:56:00,38.8,14.8,30.03,WNW,296,2.7,4.9,37,0.00,,---,0.00,VWS V14.01,2013-02-04 12:56:00,
2013-02-04 06:01:00,38.1,14.2,30.03,NW,308,0.0,3.1,37,0.00,,---,0.00,VWS V14.01,2013-02-04 13:01:00,
2013-02-04 06:06:00,37.6,14.3,30.03,South,187,0.0,4.0,38,0.00,,---,0.00,VWS V14.01,2013-02-04 13:06:00,
2013-02-04 06:11:00,37.4,14.1,30.03,WSW,240,2.2,4.0,38,0.00,,---,0.00,VWS V14.01,2013-02-04 13:11:00,
2013-02-04 06:16:00,38.1,14.8,30.03,SW,221,3.6,3.6,38,0.00,,---,0.00,VWS V14.01,2013-02-04 13:16:00,
2013-02-04 06:21:00,39.4,15.3,30.03,SSE,147,5.4,8.3,37,0.00,,---,0.00,VWS V14.01,2013-02-04 13:21:00,
2013-02-04 06:26:00,40.3,15.5,30.03,South,171,2.7,10.5,36,0.00,,---,0.00,VWS V14.01,2013-02-04 13:26:00,
2013-02-04 06:31:00,40.6,15.1,30.03,SSE,166,5.8,8.3,35,0.00,,---,0.00,VWS V14.01,2013-02-04 13:31:00,
2013-02-04 06:36:00,41.0,14.8,30.03,WSW,250,4.0,8.3,34,0.00,,---,0.00,VWS V14.01,2013-02-04 13:36:00,
2013-02-04 06:41:00,41.0,14.8,30.03,SE,139,4.0,8.3,34,0.00,,---,0.00,VWS V14.01,2013-02-04 13:41:00,
2013-02-04 06:46:00,41.2,14.3,30.03,South,169,5.8,6.3,33,0.00,,---,0.00,VWS V14.01,2013-02-04 13:46:00,
2013-02-04 06:51:00,41.2,14.3,30.03,SSE,167,3.6,6.7,33,0.00,,---,0.00,VWS V14.01,2013-02-04 13:51:00,
2013-02-04 06:56:00,41.0,14.1,30.03,South,182,5.4,6.7,33,0.00,,---,0.00,VWS V14.01,2013-02-04 13:56:00,
2013-02-04 07:01:00,41.0,14.1,30.03,SSE,153,3.1,9.2,33,0.00,,---,0.00,VWS V14.01,2013-02-04 14:01:00,
2013-02-04 07:06:00,41.0,14.1,30.03,SSE,160,2.7,9.2,33,0.00,,---,0.00,VWS V14.01,2013-02-04 14:06:00,
2013-02-04 07:11:00,40.6,13.8,30.03,SE,143,3.1,9.2,33,0.00,,---,0.00,VWS V14.01,2013-02-04 14:11:00,
2013-02-04 07:16:00,40.8,14.0,30.03,ESE,119,2.2,5.8,33,0.00,,---,0.00,VWS V14.01,2013-02-04 14:16:00,
2013-02-04 07:21:00,40.8,14.0,30.03,SE,141,4.0,5.8,33,0.00,,---,0.00,VWS V14.01,2013-02-04 14:21:00,
2013-02-04 07:26:00,40.5,13.6,30.03,SSW,203,3.6,5.8,33,0.00,,---,0.00,VWS V14.01,2013-02-04 14:26:00,
2013-02-04 07:31:00,40.5,13.6,30.03,ESE,111,0.0,0.0,33,0.00,,---,0.00,VWS V14.01,2013-02-04 14:31:00,
2013-02-04 07:36:00,40.5,13.6,30.03,South,174,6.3,8.3,33,0.00,,---,0.00,VWS V14.01,2013-02-04 14:36:00,
2013-02-04 07:41:00,40.6,14.5,30.03,SE,136,2.7,8.3,34,0.00,,---,0.00,VWS V14.01,2013-02-04 14:41:00,
2013-02-04 07:46:00,40.8,14.0,30.03,SE,143,5.8,8.1,33,0.00,,---,0.00,VWS V14.01,2013-02-04 14:46:00,
2013-02-04 07:51:00,40.8,14.0,30.03,SSE,150,3.6,8.1,33,0.00,,---,0.00,VWS V14.01,2013-02-04 14:51:00,
2013-02-04 07:56:00,40.8,14.0,30.03,South,179,4.0,8.1,33,0.00,,---,0.00,VWS V14.01,2013-02-04 14:56:00,
2013-02-04 08:01:00,40.5,14.3,30.03,SSW,197,5.8,8.1,34,0.00,,---,0.00,VWS V14.01,2013-02-04 15:01:00,
2013-02-04 08:06:00,40.6,14.5,30.03,SSE,167,4.0,8.1,34,0.00,,---,0.00,VWS V14.01,2013-02-04 15:06:00,
2013-02-04 08:11:00,40.8,14.0,30.03,SE,132,10.5,13.2,33,0.00,,---,0.00,VWS V14.01,2013-02-04 15:11:00,
2013-02-04 08:16:00,41.0,14.1,30.03,SE,145,3.6,8.7,33,0.00,,---,0.00,VWS V14.01,2013-02-04 15:16:00,
2013-02-04 08:21:00,41.0,14.1,30.03,East,99,2.7,8.7,33,0.00,,---,0.00,VWS V14.01,2013-02-04 15:21:00,
2013-02-04 08:26:00,40.8,14.6,30.03,SSE,148,4.0,8.7,34,0.00,,---,0.00,VWS V14.01,2013-02-04 15:26:00,
2013-02-04 08:31:00,40.6,14.5,30.03,South,177,5.4,5.4,34,0.00,,---,0.00,VWS V14.01,2013-02-04 15:31:00,
2013-02-04 08:36:00,41.0,14.1,30.03,South,185,6.3,10.1,33,0.00,,---,0.00,VWS V14.01,2013-02-04 15:36:00,
2013-02-04 08:41:00,41.2,14.3,30.03,South,172,5.4,10.1,33,0.00,,---,0.00,VWS V14.01,2013-02-04 15:41:00,
2013-02-04 08:47:00,41.4,14.4,30.03,South,187,7.6,8.3,33,0.00,,---,0.00,VWS V14.01,2013-02-04 15:47:00,
2013-02-04 08:52:00,41.4,14.4,30.03,South,169,2.7,8.7,33,0.00,,---,0.00,VWS V14.01,2013-02-04 15:52:00,
2013-02-04 08:57:00,41.0,14.1,30.03,South,188,2.7,8.7,33,0.00,,---,0.00,VWS V14.01,2013-02-04 15:57:00,
2013-02-04 09:02:00,40.6,13.8,30.03,South,188,0.0,0.0,33,0.00,,---,0.00,VWS V14.01,2013-02-04 16:02:00,
2013-02-04 09:07:00,40.5,14.3,30.03,South,188,0.0,0.0,34,0.00,,---,0.00,VWS V14.01,2013-02-04 16:07:00,
2013-02-04 09:12:00,40.3,14.2,30.03,West,266,3.6,3.6,34,0.00,,---,0.00,VWS V14.01,2013-02-04 16:12:00,
2013-02-04 09:17:00,40.6,14.5,30.03,SSW,196,5.8,8.1,34,0.00,,---,0.00,VWS V14.01,2013-02-04 16:17:00,
2013-02-04 09:22:00,41.2,14.3,30.03,South,180,5.4,8.1,33,0.00,,---,0.00,VWS V14.01,2013-02-04 16:22:00,
2013-02-04 09:27:00,41.9,14.9,30.03,SSE,158,0.0,10.5,33,0.00,,---,0.00,VWS V14.01,2013-02-04 16:27:00,
2013-02-04 09:32:00,42.1,15.1,30.03,South,179,6.3,8.3,33,0.00,,---,0.00,VWS V14.01,2013-02-04 16:32:00,
2013-02-04 09:37:00,42.1,15.1,30.03,SSE,167,5.8,11.9,33,0.00,,---,0.00,VWS V14.01,2013-02-04 16:37:00,
2013-02-04 09:42:00,42.1,15.1,30.03,South,169,5.8,11.9,33,0.00,,---,0.00,VWS V14.01,2013-02-04 16:42:00,
2013-02-04 09:47:00,42.1,15.1,30.03,SSE,156,5.4,5.4,33,0.00,,---,0.00,VWS V14.01,2013-02-04 16:47:00,
2013-02-04 09:52:00,42.1,15.1,30.03,South,171,6.3,8.7,33,0.00,,---,0.00,VWS V14.01,2013-02-04 16:52:00,
2013-02-04 09:57:00,41.9,15.6,30.03,South,170,6.3,8.7,34,0.00,,---,0.00,VWS V14.01,2013-02-04 16:57:00,
2013-02-04 10:02:00,41.7,15.4,30.03,ESE,102,0.0,3.6,34,0.00,,---,0.00,VWS V14.01,2013-02-04 17:02:00,
2013-02-04 10:07:00,41.7,15.4,30.03,South,181,4.9,7.6,34,0.00,,---,0.00,VWS V14.01,2013-02-04 17:07:00,
2013-02-04 10:12:00,41.7,15.4,30.03,South,185,2.7,7.6,34,0.00,,---,0.00,VWS V14.01,2013-02-04 17:12:00,
2013-02-04 10:17:00,41.9,15.6,30.03,WNW,300,2.2,3.1,34,0.00,,---,0.00,VWS V14.01,2013-02-04 17:17:00,
2013-02-04 10:22:00,41.9,15.6,30.03,South,190,2.2,4.0,34,0.00,,---,0.00,VWS V14.01,2013-02-04 17:22:00,
2013-02-04 10:27:00,41.9,15.6,30.03,South,188,0.0,4.0,34,0.00,,---,0.00,VWS V14.01,2013-02-04 17:27:00,
2013-02-04 10:32:00,42.1,15.8,30.03,SSE,168,4.0,5.8,34,0.00,,---,0.00,VWS V14.01,2013-02-04 17:32:00,
2013-02-04 10:37:00,42.1,15.8,30.03,SSW,195,10.5,10.5,34,0.00,,---,0.00,VWS V14.01,2013-02-04 17:37:00,
2013-02-04 10:42:00,42.1,15.8,30.03,South,175,7.6,10.5,34,0.00,,---,0.00,VWS V14.01,2013-02-04 17:42:00,
2013-02-04 10:47:00,42.1,15.8,30.03,SSW,204,8.7,10.1,34,0.00,,---,0.00,VWS V14.01,2013-02-04 17:47:00,
2013-02-04 10:52:00,42.3,15.9,30.03,SSW,200,7.6,15.0,34,0.00,,---,0.00,VWS V14.01,2013-02-04 17:52:00,
2013-02-04 10:57:00,42.1,15.8,30.03,SSW,192,6.7,15.0,34,0.00,,---,0.00,VWS V14.01,2013-02-04 17:57:00,
2013-02-04 11:02:00,42.3,15.9,30.03,SSW,209,6.3,10.5,34,0.00,,---,0.00,VWS V14.01,2013-02-04 18:02:00,
2013-02-04 11:07:00,42.4,16.1,30.03,South,171,10.5,11.9,34,0.00,,---,0.00,VWS V14.01,2013-02-04 18:07:00,
2013-02-04 11:12:00,42.8,15.7,30.06,SW,221,8.3,12.3,33,0.00,,---,0.00,VWS V14.01,2013-02-04 18:12:00,
2013-02-04 11:17:00,43.0,15.9,30.06,SSW,200,8.1,10.5,33,0.00,,---,0.00,VWS V14.01,2013-02-04 18:17:00,
2013-02-04 11:22:00,43.2,16.0,30.06,South,178,8.1,11.0,33,0.00,,---,0.00,VWS V14.01,2013-02-04 18:22:00,
2013-02-04 11:27:00,43.2,16.0,30.06,SSW,205,5.4,11.0,33,0.00,,---,0.00,VWS V14.01,2013-02-04 18:27:00,
2013-02-04 11:32:00,43.3,16.2,30.06,SSE,159,4.9,8.3,33,0.00,,---,0.00,VWS V14.01,2013-02-04 18:32:00,
2013-02-04 11:37:00,43.5,16.3,30.06,SSW,195,10.1,11.0,33,0.00,,---,0.00,VWS V14.01,2013-02-04 18:37:00,
2013-02-04 11:42:00,43.5,16.3,30.06,SSW,194,7.6,12.3,33,0.00,,---,0.00,VWS V14.01,2013-02-04 18:42:00,
2013-02-04 11:47:00,43.7,16.5,30.06,SW,217,6.7,8.7,33,0.00,,---,0.00,VWS V14.01,2013-02-04 18:47:00,
2013-02-04 11:52:00,43.7,16.5,30.06,SSW,200,5.8,10.5,33,0.00,,---,0.00,VWS V14.01,2013-02-04 18:52:00,
2013-02-04 11:57:00,43.9,16.7,30.06,SW,216,6.3,10.5,33,0.00,,---,0.00,VWS V14.01,2013-02-04 18:57:00,
2013-02-04 12:02:00,43.7,16.5,30.06,South,173,8.1,12.3,33,0.00,,---,0.00,VWS V14.01,2013-02-04 19:02:00,
2013-02-04 12:07:00,43.7,17.2,30.06,SSE,151,4.0,12.3,34,0.00,,---,0.00,VWS V14.01,2013-02-04 19:07:00,
2013-02-04 12:12:00,43.5,17.0,30.06,SSW,192,5.8,12.3,34,0.00,,---,0.00,VWS V14.01,2013-02-04 19:12:00,
2013-02-04 12:17:00,43.5,17.0,30.06,SE,145,6.3,11.0,34,0.00,,---,0.00,VWS V14.01,2013-02-04 19:17:00,
2013-02-04 12:22:00,43.7,17.2,30.06,South,173,8.3,11.0,34,0.00,,---,0.00,VWS V14.01,2013-02-04 19:22:00,
2013-02-04 12:27:00,43.9,17.4,30.06,South,177,4.0,11.0,34,0.00,,---,0.00,VWS V14.01,2013-02-04 19:27:00,
2013-02-04 12:32:00,44.1,17.5,30.06,South,183,3.6,5.4,34,0.00,,---,0.00,VWS V14.01,2013-02-04 19:32:00,
2013-02-04 12:37:00,43.9,17.4,30.06,ESE,123,5.8,10.1,34,0.00,,---,0.00,VWS V14.01,2013-02-04 19:37:00,
2013-02-04 12:42:00,44.1,17.5,30.03,ESE,117,3.1,10.1,34,0.00,,---,0.00,VWS V14.01,2013-02-04 19:42:00,
2013-02-04 12:47:00,44.2,17.7,30.03,SE,141,4.9,5.8,34,0.00,,---,0.00,VWS V14.01,2013-02-04 19:47:00,
2013-02-04 12:52:00,44.4,17.8,30.03,SSE,153,2.7,5.8,34,0.00,,---,0.00,VWS V14.01,2013-02-04 19:52:00,
2013-02-04 12:57:00,44.4,17.8,30.06,South,180,4.0,8.1,34,0.00,,---,0.00,VWS V14.01,2013-02-04 19:57:00,
2013-02-04 13:02:00,44.2,17.7,30.06,East,94,4.0,6.3,34,0.00,,---,0.00,VWS V14.01,2013-02-04 20:02:00,
2013-02-04 13:07:00,44.1,18.2,30.06,SSE,154,4.0,6.3,35,0.00,,---,0.00,VWS V14.01,2013-02-04 20:07:00,
2013-02-04 13:12:00,43.9,18.0,30.03,SE,136,6.3,6.3,35,0.00,,---,0.00,VWS V14.01,2013-02-04 20:12:00,
2013-02-04 13:17:00,43.9,18.7,30.03,SE,139,4.0,6.3,36,0.00,,---,0.00,VWS V14.01,2013-02-04 20:17:00,
2013-02-04 13:22:00,43.9,18.7,30.03,SSE,148,3.1,8.3,36,0.00,,---,0.00,VWS V14.01,2013-02-04 20:22:00,
2013-02-04 13:27:00,43.7,19.1,30.03,SSE,160,5.4,8.7,37,0.00,,---,0.00,VWS V14.01,2013-02-04 20:27:00,
2013-02-04 13:32:00,43.3,19.5,30.03,SSE,159,6.3,8.7,38,0.00,,---,0.00,VWS V14.01,2013-02-04 20:32:00,
2013-02-04 13:37:00,43.3,19.5,30.03,South,185,8.1,8.7,38,0.00,,---,0.00,VWS V14.01,2013-02-04 20:37:00,
2013-02-04 13:42:00,43.2,18.7,30.03,SE,140,5.4,10.5,37,0.00,,---,0.00,VWS V14.01,2013-02-04 20:42:00,
2013-02-04 13:47:00,43.3,18.8,30.03,SSE,164,6.3,6.3,37,0.00,,---,0.00,VWS V14.01,2013-02-04 20:47:00,
2013-02-04 13:52:00,43.5,19.6,30.03,ESE,113,6.3,6.3,38,0.00,,---,0.00,VWS V14.01,2013-02-04 20:52:00,
2013-02-04 13:57:00,43.3,19.5,30.03,SE,134,3.6,8.3,38,0.00,,---,0.00,VWS V14.01,2013-02-04 20:57:00,
2013-02-04 14:02:00,43.5,19.6,30.03,SE,124,2.7,4.0,38,0.00,,---,0.00,VWS V14.01,2013-02-04 21:02:00,
2013-02-04 14:07:00,43.9,19.9,30.03,SE,146,4.0,5.8,38,0.00,,---,0.00,VWS V14.01,2013-02-04 21:07:00,
2013-02-04 14:12:00,44.1,19.5,30.03,SE,128,5.8,7.2,37,0.00,,---,0.00,VWS V14.01,2013-02-04 21:12:00,
2013-02-04 14:17:00,44.1,19.5,30.03,SE,141,3.1,6.7,37,0.00,,---,0.00,VWS V14.01,2013-02-04 21:17:00,
2013-02-04 14:22:00,43.7,19.8,30.03,SE,146,3.6,6.7,38,0.00,,---,0.00,VWS V14.01,2013-02-04 21:22:00,
2013-02-04 14:27:00,43.5,19.6,30.03,East,91,2.7,6.7,38,0.00,,---,0.00,VWS V14.01,2013-02-04 21:27:00,
2013-02-04 14:32:00,43.5,19.6,30.03,SSE,156,6.3,6.3,38,0.00,,---,0.00,VWS V14.01,2013-02-04 21:32:00,
2013-02-04 14:37:00,43.9,19.9,30.03,SSE,158,0.0,6.3,38,0.00,,---,0.00,VWS V14.01,2013-02-04 21:37:00,
2013-02-04 14:42:00,44.6,20.0,30.03,ESE,111,2.7,6.3,37,0.00,,---,0.00,VWS V14.01,2013-02-04 21:42:00,
2013-02-04 14:47:00,44.8,20.1,30.03,ESE,111,0.0,3.6,37,0.00,,---,0.00,VWS V14.01,2013-02-04 21:47:00,
2013-02-04 14:52:00,45.1,20.4,30.03,SSE,155,5.8,5.8,37,0.00,,---,0.00,VWS V14.01,2013-02-04 21:52:00,
2013-02-04 14:57:00,45.1,20.4,30.03,SE,133,4.0,7.6,37,0.00,,---,0.00,VWS V14.01,2013-02-04 21:57:00,
2013-02-04 15:02:00,45.0,20.3,30.03,SSE,150,2.7,3.1,37,0.00,,---,0.00,VWS V14.01,2013-02-04 22:02:00,
2013-02-04 15:07:00,44.8,20.1,30.03,SSE,161,3.6,6.3,37,0.00,,---,0.00,VWS V14.01,2013-02-04 22:07:00,
2013-02-04 15:12:00,44.8,20.1,30.03,East,82,2.7,6.3,37,0.00,,---,0.00,VWS V14.01,2013-02-04 22:12:00,
2013-02-04 15:17:00,44.6,20.0,30.03,ESE,110,4.0,4.0,37,0.00,,---,0.00,VWS V14.01,2013-02-04 22:17:00,
2013-02-04 15:22:00,44.2,19.6,30.03,ENE,78,0.0,5.4,37,0.00,,---,0.00,VWS V14.01,2013-02-04 22:22:00,
2013-02-04 15:27:00,44.2,20.3,30.03,ESE,102,3.6,5.4,38,0.00,,---,0.00,VWS V14.01,2013-02-04 22:27:00,
2013-02-04 15:32:00,44.2,19.6,30.03,ESE,118,3.1,4.9,37,0.00,,---,0.00,VWS V14.01,2013-02-04 22:32:00,
2013-02-04 15:37:00,44.1,18.8,30.03,NE,51,0.0,4.9,36,0.00,,---,0.00,VWS V14.01,2013-02-04 22:37:00,
2013-02-04 15:42:00,44.1,18.8,30.03,East,95,3.1,4.9,36,0.00,,---,0.00,VWS V14.01,2013-02-04 22:42:00,
2013-02-04 15:47:00,44.4,19.1,30.03,ESE,106,0.0,0.0,36,0.00,,---,0.00,VWS V14.01,2013-02-04 22:47:00,
2013-02-04 15:52:00,44.8,19.5,30.03,SE,126,0.0,3.6,36,0.00,,---,0.00,VWS V14.01,2013-02-04 22:52:00,
2013-02-04 15:57:00,44.8,18.8,30.03,ESE,105,0.0,4.0,35,0.00,,---,0.00,VWS V14.01,2013-02-04 22:57:00,
2013-02-04 16:02:00,44.8,18.8,30.03,ESE,108,0.0,4.0,35,0.00,,---,0.00,VWS V14.01,2013-02-04 23:02:00,
2013-02-04 16:07:00,44.4,17.8,30.03,NE,53,0.0,4.0,34,0.00,,---,0.00,VWS V14.01,2013-02-04 23:07:00,
2013-02-04 16:12:00,44.2,18.3,30.03,ENE,59,2.7,4.0,35,0.00,,---,0.00,VWS V14.01,2013-02-04 23:12:00,
2013-02-04 16:17:00,43.9,18.0,30.03,ESE,110,4.0,4.0,35,0.00,,---,0.00,VWS V14.01,2013-02-04 23:17:00,
2013-02-04 16:22:00,43.3,17.5,30.03,SE,124,2.2,5.8,35,0.00,,---,0.00,VWS V14.01,2013-02-04 23:22:00,
2013-02-04 16:27:00,42.4,17.4,30.03,ESE,112,0.0,5.8,36,0.00,,---,0.00,VWS V14.01,2013-02-04 23:27:00,
2013-02-04 16:32:00,42.1,17.7,30.03,East,93,2.7,4.9,37,0.00,,---,0.00,VWS V14.01,2013-02-04 23:32:00,
2013-02-04 16:37:00,41.9,18.2,30.03,ENE,71,3.1,5.4,38,0.00,,---,0.00,VWS V14.01,2013-02-04 23:37:00,
2013-02-04 16:42:00,41.7,18.0,30.03,East,94,0.0,5.4,38,0.00,,---,0.00,VWS V14.01,2013-02-04 23:42:00,
2013-02-04 16:47:00,41.5,17.8,30.03,ESE,110,3.6,4.9,38,0.00,,---,0.00,VWS V14.01,2013-02-04 23:47:00,
2013-02-04 16:52:00,41.5,18.4,30.03,East,91,0.0,5.4,39,0.00,,---,0.00,VWS V14.01,2013-02-04 23:52:00,
2013-02-04 16:57:00,41.4,18.3,30.03,ENE,59,3.1,5.4,39,0.00,,---,0.00,VWS V14.01,2013-02-04 23:57:00,
2013-02-04 17:02:00,41.2,18.1,30.03,ENE,59,0.0,0.0,39,0.00,,---,0.00,VWS V14.01,2013-02-05 00:02:00,
2013-02-04 17:07:00,40.8,17.8,30.03,East,79,0.0,3.1,39,0.00,,---,0.00,VWS V14.01,2013-02-05 00:07:00,
2013-02-04 17:12:00,40.5,17.5,30.03,East,79,0.0,3.1,39,0.00,,---,0.00,VWS V14.01,2013-02-05 00:12:00,
2013-02-04 17:17:00,39.9,17.0,30.03,East,79,0.0,0.0,39,0.00,,---,0.00,VWS V14.01,2013-02-05 00:17:00,
2013-02-04 17:22:00,39.7,16.8,30.03,East,79,0.0,0.0,39,0.00,,---,0.00,VWS V14.01,2013-02-05 00:22:00,
2013-02-04 17:27:00,39.4,16.5,30.03,ENE,61,0.0,0.0,39,0.00,,---,0.00,VWS V14.01,2013-02-05 00:27:00,
2013-02-04 17:32:00,39.0,16.8,30.03,ENE,61,0.0,0.0,40,0.00,,---,0.00,VWS V14.01,2013-02-05 00:32:00,
2013-02-04 17:37:00,38.7,16.4,30.03,ENE,61,0.0,0.0,40,0.00,,---,0.00,VWS V14.01,2013-02-05 00:37:00,
2013-02-04 17:42:00,38.1,15.9,30.03,ENE,61,0.0,0.0,40,0.00,,---,0.00,VWS V14.01,2013-02-05 00:42:00,
2013-02-04 17:47:00,37.8,16.2,30.03,ENE,61,0.0,0.0,41,0.00,,---,0.00,VWS V14.01,2013-02-05 00:47:00,
2013-02-04 17:52:00,37.0,15.5,30.03,SE,130,0.0,0.0,41,0.00,,---,0.00,VWS V14.01,2013-02-05 00:52:00,
2013-02-04 17:57:00,36.9,16.5,30.03,SE,130,0.0,0.0,43,0.00,,---,0.00,VWS V14.01,2013-02-05 00:57:00,
2013-02-04 18:02:00,36.5,16.1,30.03,SE,130,0.0,0.0,43,0.00,,---,0.00,VWS V14.01,2013-02-05 01:02:00,
2013-02-04 18:07:00,36.0,15.6,30.03,SE,130,0.0,0.0,43,0.00,,---,0.00,VWS V14.01,2013-02-05 01:07:00,
2013-02-04 18:12:00,35.4,15.2,30.03,SE,130,0.0,0.0,43,0.00,,---,0.00,VWS V14.01,2013-02-05 01:12:00,
2013-02-04 18:17:00,35.1,14.8,30.03,SE,130,0.0,0.0,43,0.00,,---,0.00,VWS V14.01,2013-02-05 01:17:00,
2013-02-04 18:22:00,35.1,15.9,30.03,SE,130,0.0,0.0,45,0.00,,---,0.00,VWS V14.01,2013-02-05 01:22:00,
2013-02-04 18:27:00,35.2,18.5,30.03,NNW,338,2.2,3.6,50,0.00,,---,0.00,VWS V14.01,2013-02-05 01:27:00,
2013-02-04 18:32:00,35.4,17.7,30.03,WSW,249,5.4,5.4,48,0.00,,---,0.00,VWS V14.01,2013-02-05 01:32:00,
2013-02-04 18:37:00,35.4,18.2,30.03,West,259,0.0,5.4,49,0.00,,---,0.00,VWS V14.01,2013-02-05 01:37:00,
2013-02-04 18:42:00,35.4,18.2,30.03,SSW,206,2.7,5.4,49,0.00,,---,0.00,VWS V14.01,2013-02-05 01:42:00,
2013-02-04 18:47:00,35.8,18.0,30.03,WSW,246,0.0,2.7,48,0.00,,---,0.00,VWS V14.01,2013-02-05 01:47:00,
2013-02-04 18:52:00,35.4,17.7,30.03,WSW,237,0.0,2.7,48,0.00,,---,0.00,VWS V14.01,2013-02-05 01:52:00,
2013-02-04 18:57:00,35.4,18.2,30.03,WSW,237,0.0,2.7,49,0.00,,---,0.00,VWS V14.01,2013-02-05 01:57:00,
2013-02-04 19:03:00,35.1,17.4,30.03,SW,218,0.0,0.0,48,0.00,,---,0.00,VWS V14.01,2013-02-05 02:03:00,
2013-02-04 19:08:00,34.5,16.9,30.03,WSW,252,0.0,0.0,48,0.00,,---,0.00,VWS V14.01,2013-02-05 02:08:00,
2013-02-04 19:13:00,34.3,17.2,30.03,West,274,0.0,0.0,49,0.00,,---,0.00,VWS V14.01,2013-02-05 02:13:00,
2013-02-04 19:18:00,34.2,17.5,30.03,WNW,288,0.0,4.0,50,0.00,,---,0.00,VWS V14.01,2013-02-05 02:18:00,
2013-02-04 19:23:00,33.8,17.1,30.03,West,274,0.0,4.0,50,0.00,,---,0.00,VWS V14.01,2013-02-05 02:23:00,
2013-02-04 19:28:00,33.6,17.4,30.03,West,274,0.0,4.0,51,0.00,,---,0.00,VWS V14.01,2013-02-05 02:28:00,
2013-02-04 19:33:00,33.6,17.4,30.03,West,274,0.0,0.0,51,0.00,,---,0.00,VWS V14.01,2013-02-05 02:33:00,
2013-02-04 19:38:00,33.1,16.9,30.03,WSW,253,0.0,0.0,51,0.00,,---,0.00,VWS V14.01,2013-02-05 02:38:00,
2013-02-04 19:43:00,32.7,16.1,30.03,WSW,244,0.0,4.0,50,0.00,,---,0.00,VWS V14.01,2013-02-05 02:43:00,
2013-02-04 19:48:00,32.2,16.5,30.03,West,265,0.0,0.0,52,0.00,,---,0.00,VWS V14.01,2013-02-05 02:48:00,
2013-02-04 19:53:00,32.2,17.0,30.03,West,271,0.0,3.6,53,0.00,,---,0.00,VWS V14.01,2013-02-05 02:53:00,
2013-02-04 19:58:00,31.8,16.6,30.03,WNW,286,0.0,3.6,53,0.00,,---,0.00,VWS V14.01,2013-02-05 02:58:00,
2013-02-04 20:03:00,31.6,16.5,30.03,SSW,203,3.1,4.0,53,0.00,,---,0.00,VWS V14.01,2013-02-05 03:03:00,
2013-02-04 20:08:00,31.3,15.7,30.03,WSW,246,0.0,4.0,52,0.00,,---,0.00,VWS V14.01,2013-02-05 03:08:00,
2013-02-04 20:13:00,31.1,15.5,30.03,WSW,246,0.0,4.0,52,0.00,,---,0.00,VWS V14.01,2013-02-05 03:13:00,
2013-02-04 20:18:00,31.1,16.0,30.03,WSW,248,0.0,0.0,53,0.00,,---,0.00,VWS V14.01,2013-02-05 03:18:00,
2013-02-04 20:23:00,30.9,15.8,30.03,South,191,2.7,2.7,53,0.00,,---,0.00,VWS V14.01,2013-02-05 03:23:00,
2013-02-04 20:28:00,30.7,15.6,30.03,WSW,254,0.0,4.0,53,0.00,,---,0.00,VWS V14.01,2013-02-05 03:28:00,
2013-02-04 20:33:00,30.7,15.6,30.03,West,265,0.0,3.1,53,0.00,,---,0.00,VWS V14.01,2013-02-05 03:33:00,
2013-02-04 20:38:00,30.9,16.2,30.03,NW,323,2.7,3.6,54,0.00,,---,0.00,VWS V14.01,2013-02-05 03:38:00,
2013-02-04 20:43:00,31.5,17.2,30.00,West,267,0.0,4.0,55,0.00,,---,0.00,VWS V14.01,2013-02-05 03:43:00,
2013-02-04 20:48:00,31.3,17.0,30.00,West,269,2.2,2.7,55,0.00,,---,0.00,VWS V14.01,2013-02-05 03:48:00,
2013-02-04 20:53:00,31.1,16.4,30.00,WSW,239,0.0,3.1,54,0.00,,---,0.00,VWS V14.01,2013-02-05 03:53:00,
2013-02-04 20:58:00,30.6,15.9,30.00,SW,225,0.0,3.1,54,0.00,,---,0.00,VWS V14.01,2013-02-05 03:58:00,
2013-02-04 21:03:00,30.0,15.8,30.00,WSW,254,0.0,0.0,55,0.00,,---,0.00,VWS V14.01,2013-02-05 04:03:00,
2013-02-04 21:09:00,30.2,16.4,30.00,WSW,256,0.0,0.0,56,0.00,,---,0.00,VWS V14.01,2013-02-05 04:09:00,
2013-02-04 21:14:00,30.2,16.4,30.03,WNW,292,0.0,0.0,56,0.00,,---,0.00,VWS V14.01,2013-02-05 04:14:00,
2013-02-04 21:19:00,29.8,16.1,30.03,WNW,292,0.0,0.0,56,0.00,,---,0.00,VWS V14.01,2013-02-05 04:19:00,
2013-02-04 21:24:00,29.7,15.9,30.03,WNW,292,0.0,0.0,56,0.00,,---,0.00,VWS V14.01,2013-02-05 04:24:00,
2013-02-04 21:29:00,30.0,16.2,30.00,WNW,283,0.0,0.0,56,0.00,,---,0.00,VWS V14.01,2013-02-05 04:29:00,
2013-02-04 21:33:00,30.2,16.8,30.00,WNW,299,0.0,0.0,57,0.00,,---,0.00,VWS V14.01,2013-02-05 04:33:00,
2013-02-04 21:39:00,30.4,16.6,30.00,West,263,0.0,3.6,56,0.00,,---,0.00,VWS V14.01,2013-02-05 04:39:00,
2013-02-04 21:44:00,30.2,16.4,30.00,WSW,241,2.7,4.0,56,0.00,,---,0.00,VWS V14.01,2013-02-05 04:44:00,
2013-02-04 21:48:00,30.0,16.2,30.00,West,265,0.0,0.0,56,0.00,,---,0.00,VWS V14.01,2013-02-05 04:48:00,
2013-02-04 21:53:00,30.0,16.6,30.00,WSW,244,0.0,3.6,57,0.00,,---,0.00,VWS V14.01,2013-02-05 04:53:00,
2013-02-04 21:58:00,29.7,15.9,30.00,WSW,244,0.0,3.6,56,0.00,,---,0.00,VWS V14.01,2013-02-05 04:58:00,
2013-02-04 22:00:00,29.7,15.9,30.00,WSW,244,0.0,3.6,56,0.00,,---,0.00,VWS V14.01,2013-02-05 05:00:00,
2013-02-04 22:05:00,29.5,15.7,30.00,WSW,244,0.0,0.0,56,0.00,,---,0.00,VWS V14.01,2013-02-05 05:05:00,
2013-02-04 22:10:00,29.7,16.3,30.00,WSW,256,0.0,0.0,57,0.00,,---,0.00,VWS V14.01,2013-02-05 05:10:00,
2013-02-04 22:15:00,29.7,16.3,30.00,SW,228,0.0,0.0,57,0.00,,---,0.00,VWS V14.01,2013-02-05 05:15:00,
2013-02-04 22:20:00,29.8,16.5,30.00,SSE,164,0.0,0.0,57,0.00,,---,0.00,VWS V14.01,2013-02-05 05:20:00,
2013-02-04 22:25:00,29.8,16.5,30.00,WSW,244,0.0,0.0,57,0.00,,---,0.00,VWS V14.01,2013-02-05 05:25:00,
2013-02-04 22:30:00,30.6,17.6,30.00,West,267,0.0,0.0,58,0.00,,---,0.00,VWS V14.01,2013-02-05 05:30:00,
2013-02-04 22:35:00,30.4,17.0,30.00,West,267,0.0,0.0,57,0.00,,---,0.00,VWS V14.01,2013-02-05 05:35:00,
2013-02-04 22:40:00,30.2,16.8,30.00,West,267,0.0,0.0,57,0.00,,---,0.00,VWS V14.01,2013-02-05 05:40:00,
2013-02-04 22:45:00,29.8,16.5,30.00,West,267,0.0,0.0,57,0.00,,---,0.00,VWS V14.01,2013-02-05 05:45:00,
2013-02-04 22:50:00,29.8,16.5,30.00,SSE,149,0.0,0.0,57,0.00,,---,0.00,VWS V14.01,2013-02-05 05:50:00,
2013-02-04 22:55:00,30.2,17.2,30.00,SE,145,2.7,3.1,58,0.00,,---,0.00,VWS V14.01,2013-02-05 05:55:00,
2013-02-04 23:00:00,31.1,18.1,30.00,SE,130,0.0,0.0,58,0.00,,---,0.00,VWS V14.01,2013-02-05 06:00:00,
2013-02-04 23:05:00,31.1,17.7,30.00,WSW,241,0.0,2.7,57,0.00,,---,0.00,VWS V14.01,2013-02-05 06:05:00,
2013-02-04 23:10:00,31.3,18.2,30.00,SE,145,3.6,5.4,58,0.00,,---,0.00,VWS V14.01,2013-02-05 06:10:00,
2013-02-04 23:15:00,32.2,19.1,30.00,SSE,167,2.2,3.1,58,0.00,,---,0.00,VWS V14.01,2013-02-05 06:15:00,
2013-02-04 23:20:00,32.2,19.1,30.00,SE,144,3.1,4.0,58,0.00,,---,0.00,VWS V14.01,2013-02-05 06:20:00,
2013-02-04 23:25:00,32.2,18.7,30.00,South,187,3.1,4.9,57,0.00,,---,0.00,VWS V14.01,2013-02-05 06:25:00,
2013-02-04 23:30:00,31.8,18.3,30.00,SW,236,0.0,0.0,57,0.00,,---,0.00,VWS V14.01,2013-02-05 06:30:00,
2013-02-04 23:35:00,31.1,17.7,30.00,WSW,247,0.0,2.7,57,0.00,,---,0.00,VWS V14.01,2013-02-05 06:35:00,
2013-02-04 23:40:00,30.9,17.5,30.00,SW,214,3.1,3.6,57,0.00,,---,0.00,VWS V14.01,2013-02-05 06:40:00,
2013-02-04 23:45:00,31.1,17.7,30.00,SE,139,2.7,2.7,57,0.00,,---,0.00,VWS V14.01,2013-02-05 06:45:00,
2013-02-04 23:50:00,31.8,18.3,30.00,SSE,159,2.7,4.0,57,0.00,,---,0.00,VWS V14.01,2013-02-05 06:50:00,
2013-02-04 23:55:00,31.3,17.4,30.00,SW,236,0.0,4.0,56,0.00,,---,0.00,VWS V14.01,2013-02-05 06:55:00,